sensor_id;sensor_type;location;lat;lon;timestamp;temperature;humidity
29453;DHT22;16424;50.956;5.320;2023-07-31T00:00:53;17.70;99.90
29453;DHT22;16424;50.956;5.320;2023-07-31T00:03:19;17.70;99.90
29453;DHT22;16424;50.956;5.320;2023-07-31T00:05:44;17.50;99.90
29453;DHT22;16424;50.956;5.320;2023-07-31T00:08:10;17.50;99.90
29453;DHT22;16424;50.956;5.320;2023-07-31T00:10:36;17.60;99.90
29453;DHT22;16424;50.956;5.320;2023-07-31T00:13:01;17.60;99.90
29453;DHT22;16424;50.956;5.320;2023-07-31T00:15:27;17.50;99.90
29453;DHT22;16424;50.956;5.320;2023-07-31T00:17:53;17.50;99.90
29453;DHT22;16424;50.956;5.320;2023-07-31T00:20:18;17.40;99.90
29453;DHT22;16424;50.956;5.320;2023-07-31T00:22:44;17.40;99.90
29453;DHT22;16424;50.956;5.320;2023-07-31T00:25:09;17.50;99.90
29453;DHT22;16424;50.956;5.320;2023-07-31T00:27:35;17.50;99.90
29453;DHT22;16424;50.956;5.320;2023-07-31T00:30:01;17.60;99.90
29453;DHT22;16424;50.956;5.320;2023-07-31T00:32:26;17.60;99.90
29453;DHT22;16424;50.956;5.320;2023-07-31T00:34:52;17.60;99.90
29453;DHT22;16424;50.956;5.320;2023-07-31T00:37:17;17.50;99.90
29453;DHT22;16424;50.956;5.320;2023-07-31T00:39:43;17.40;99.90
29453;DHT22;16424;50.956;5.320;2023-07-31T00:42:09;17.40;99.90
29453;DHT22;16424;50.956;5.320;2023-07-31T00:44:34;17.50;99.90
29453;DHT22;16424;50.956;5.320;2023-07-31T00:47:00;17.50;99.90
29453;DHT22;16424;50.956;5.320;2023-07-31T00:49:26;17.50;99.90
29453;DHT22;16424;50.956;5.320;2023-07-31T00:51:53;17.40;99.90
29453;DHT22;16424;50.956;5.320;2023-07-31T00:54:19;17.40;99.90
29453;DHT22;16424;50.956;5.320;2023-07-31T00:56:47;17.50;99.90
29453;DHT22;16424;50.956;5.320;2023-07-31T00:59:14;17.60;99.90
29453;DHT22;16424;50.956;5.320;2023-07-31T01:01:40;17.50;99.90
29453;DHT22;16424;50.956;5.320;2023-07-31T01:04:06;17.50;99.90
29453;DHT22;16424;50.956;5.320;2023-07-31T01:12:16;17.70;99.90
29453;DHT22;16424;50.956;5.320;2023-07-31T01:17:26;17.80;99.90
29453;DHT22;16424;50.956;5.320;2023-07-31T01:19:53;17.90;99.90
29453;DHT22;16424;50.956;5.320;2023-07-31T01:28:07;17.80;99.90
29453;DHT22;16424;50.956;5.320;2023-07-31T01:30:36;17.70;99.90
29453;DHT22;16424;50.956;5.320;2023-07-31T01:33:03;17.80;99.90
29453;DHT22;16424;50.956;5.320;2023-07-31T01:35:34;18.00;99.90
29453;DHT22;16424;50.956;5.320;2023-07-31T01:38:00;17.80;99.90
29453;DHT22;16424;50.956;5.320;2023-07-31T01:40:25;17.80;99.90
29453;DHT22;16424;50.956;5.320;2023-07-31T01:42:51;17.70;99.90
29453;DHT22;16424;50.956;5.320;2023-07-31T01:45:17;17.80;99.90
29453;DHT22;16424;50.956;5.320;2023-07-31T01:47:42;17.80;99.90
29453;DHT22;16424;50.956;5.320;2023-07-31T01:50:08;17.70;99.90
29453;DHT22;16424;50.956;5.320;2023-07-31T01:52:34;17.80;99.90
29453;DHT22;16424;50.956;5.320;2023-07-31T01:55:03;17.90;99.90
29453;DHT22;16424;50.956;5.320;2023-07-31T01:57:29;18.00;99.90
29453;DHT22;16424;50.956;5.320;2023-07-31T01:59:54;17.90;99.90
29453;DHT22;16424;50.956;5.320;2023-07-31T02:02:20;18.10;99.90
29453;DHT22;16424;50.956;5.320;2023-07-31T02:04:46;18.00;99.90
29453;DHT22;16424;50.956;5.320;2023-07-31T02:07:12;18.10;99.90
29453;DHT22;16424;50.956;5.320;2023-07-31T02:09:38;18.10;99.90
29453;DHT22;16424;50.956;5.320;2023-07-31T02:12:03;18.10;99.90
29453;DHT22;16424;50.956;5.320;2023-07-31T02:14:29;18.10;99.90
29453;DHT22;16424;50.956;5.320;2023-07-31T02:16:55;18.10;99.90
29453;DHT22;16424;50.956;5.320;2023-07-31T02:19:20;18.20;99.90
29453;DHT22;16424;50.956;5.320;2023-07-31T02:21:46;18.10;99.90
29453;DHT22;16424;50.956;5.320;2023-07-31T02:24:12;18.10;99.90
29453;DHT22;16424;50.956;5.320;2023-07-31T02:26:37;18.20;99.90
29453;DHT22;16424;50.956;5.320;2023-07-31T02:29:03;18.10;99.90
29453;DHT22;16424;50.956;5.320;2023-07-31T02:31:28;18.10;99.90
29453;DHT22;16424;50.956;5.320;2023-07-31T02:33:54;18.10;99.90
29453;DHT22;16424;50.956;5.320;2023-07-31T02:36:20;18.00;99.90
29453;DHT22;16424;50.956;5.320;2023-07-31T02:38:45;18.00;99.90
29453;DHT22;16424;50.956;5.320;2023-07-31T02:41:11;18.10;99.90
29453;DHT22;16424;50.956;5.320;2023-07-31T02:43:37;18.00;99.90
29453;DHT22;16424;50.956;5.320;2023-07-31T02:46:02;18.00;99.90
29453;DHT22;16424;50.956;5.320;2023-07-31T02:48:28;17.90;99.90
29453;DHT22;16424;50.956;5.320;2023-07-31T02:50:54;18.00;99.90
29453;DHT22;16424;50.956;5.320;2023-07-31T02:53:19;18.10;99.90
29453;DHT22;16424;50.956;5.320;2023-07-31T02:55:45;18.10;99.90
29453;DHT22;16424;50.956;5.320;2023-07-31T02:58:11;18.20;99.90
29453;DHT22;16424;50.956;5.320;2023-07-31T03:00:42;18.20;99.90
29453;DHT22;16424;50.956;5.320;2023-07-31T03:03:08;18.20;99.90
29453;DHT22;16424;50.956;5.320;2023-07-31T03:05:33;18.20;99.90
29453;DHT22;16424;50.956;5.320;2023-07-31T03:07:59;18.30;99.90
29453;DHT22;16424;50.956;5.320;2023-07-31T03:10:24;18.20;99.90
29453;DHT22;16424;50.956;5.320;2023-07-31T03:12:50;18.20;99.90
29453;DHT22;16424;50.956;5.320;2023-07-31T03:15:16;18.20;99.90
29453;DHT22;16424;50.956;5.320;2023-07-31T03:17:44;18.20;99.90
29453;DHT22;16424;50.956;5.320;2023-07-31T03:20:10;18.30;99.90
29453;DHT22;16424;50.956;5.320;2023-07-31T03:22:36;18.30;99.90
29453;DHT22;16424;50.956;5.320;2023-07-31T03:25:03;18.10;99.90
29453;DHT22;16424;50.956;5.320;2023-07-31T03:27:28;18.10;99.90
29453;DHT22;16424;50.956;5.320;2023-07-31T03:29:54;18.20;99.90
29453;DHT22;16424;50.956;5.320;2023-07-31T03:32:20;18.30;99.90
29453;DHT22;16424;50.956;5.320;2023-07-31T03:34:45;18.10;99.90
29453;DHT22;16424;50.956;5.320;2023-07-31T03:37:11;18.10;99.90
29453;DHT22;16424;50.956;5.320;2023-07-31T03:39:39;18.10;99.90
29453;DHT22;16424;50.956;5.320;2023-07-31T03:42:05;18.10;99.90
29453;DHT22;16424;50.956;5.320;2023-07-31T03:44:31;18.00;99.90
29453;DHT22;16424;50.956;5.320;2023-07-31T03:46:56;18.00;99.90
29453;DHT22;16424;50.956;5.320;2023-07-31T03:49:25;18.10;99.90
29453;DHT22;16424;50.956;5.320;2023-07-31T03:51:51;18.20;99.90
29453;DHT22;16424;50.956;5.320;2023-07-31T03:54:16;18.20;99.90
29453;DHT22;16424;50.956;5.320;2023-07-31T03:56:42;18.10;99.90
29453;DHT22;16424;50.956;5.320;2023-07-31T03:59:07;18.20;99.90
29453;DHT22;16424;50.956;5.320;2023-07-31T04:01:33;18.20;99.90
29453;DHT22;16424;50.956;5.320;2023-07-31T04:03:59;18.20;99.90
29453;DHT22;16424;50.956;5.320;2023-07-31T04:06:24;18.30;99.90
29453;DHT22;16424;50.956;5.320;2023-07-31T04:08:50;18.20;99.90
29453;DHT22;16424;50.956;5.320;2023-07-31T04:11:15;18.20;99.90
29453;DHT22;16424;50.956;5.320;2023-07-31T04:13:41;18.30;99.90
29453;DHT22;16424;50.956;5.320;2023-07-31T04:16:10;18.30;99.90
29453;DHT22;16424;50.956;5.320;2023-07-31T04:18:37;18.30;99.90
29453;DHT22;16424;50.956;5.320;2023-07-31T04:21:02;18.30;99.90
29453;DHT22;16424;50.956;5.320;2023-07-31T04:23:28;18.30;99.90
29453;DHT22;16424;50.956;5.320;2023-07-31T04:25:54;18.30;99.90
29453;DHT22;16424;50.956;5.320;2023-07-31T04:28:19;18.20;99.90
29453;DHT22;16424;50.956;5.320;2023-07-31T04:30:45;18.10;99.90
29453;DHT22;16424;50.956;5.320;2023-07-31T04:33:11;18.00;99.90
29453;DHT22;16424;50.956;5.320;2023-07-31T04:35:36;18.10;99.90
29453;DHT22;16424;50.956;5.320;2023-07-31T04:38:02;18.00;99.90
29453;DHT22;16424;50.956;5.320;2023-07-31T04:40:27;18.00;99.90
29453;DHT22;16424;50.956;5.320;2023-07-31T04:42:53;18.00;99.90
29453;DHT22;16424;50.956;5.320;2023-07-31T04:45:19;18.00;99.90
29453;DHT22;16424;50.956;5.320;2023-07-31T04:47:44;18.10;99.90
29453;DHT22;16424;50.956;5.320;2023-07-31T04:50:10;18.00;99.90
29453;DHT22;16424;50.956;5.320;2023-07-31T04:52:36;18.00;99.90
29453;DHT22;16424;50.956;5.320;2023-07-31T04:55:01;18.10;99.90
29453;DHT22;16424;50.956;5.320;2023-07-31T04:57:28;18.10;99.90
29453;DHT22;16424;50.956;5.320;2023-07-31T04:59:54;18.00;99.90
29453;DHT22;16424;50.956;5.320;2023-07-31T05:02:19;17.80;99.90
29453;DHT22;16424;50.956;5.320;2023-07-31T05:04:45;17.90;99.90
29453;DHT22;16424;50.956;5.320;2023-07-31T05:07:11;17.90;99.90
29453;DHT22;16424;50.956;5.320;2023-07-31T05:09:36;17.90;99.90
29453;DHT22;16424;50.956;5.320;2023-07-31T05:12:04;18.00;99.90
29453;DHT22;16424;50.956;5.320;2023-07-31T05:14:29;18.10;99.90
29453;DHT22;16424;50.956;5.320;2023-07-31T05:16:55;17.90;99.90
29453;DHT22;16424;50.956;5.320;2023-07-31T05:19:23;17.90;99.90
29453;DHT22;16424;50.956;5.320;2023-07-31T05:21:49;17.90;99.90
29453;DHT22;16424;50.956;5.320;2023-07-31T05:24:15;18.00;99.90
29453;DHT22;16424;50.956;5.320;2023-07-31T05:26:40;18.00;99.90
29453;DHT22;16424;50.956;5.320;2023-07-31T05:29:06;17.90;99.90
29453;DHT22;16424;50.956;5.320;2023-07-31T05:31:31;17.90;99.90
29453;DHT22;16424;50.956;5.320;2023-07-31T05:33:58;17.90;99.90
29453;DHT22;16424;50.956;5.320;2023-07-31T05:36:23;17.90;99.90
29453;DHT22;16424;50.956;5.320;2023-07-31T05:38:49;17.80;99.90
29453;DHT22;16424;50.956;5.320;2023-07-31T05:41:15;17.80;99.90
29453;DHT22;16424;50.956;5.320;2023-07-31T05:43:41;17.80;99.90
29453;DHT22;16424;50.956;5.320;2023-07-31T05:46:08;17.90;99.90
29453;DHT22;16424;50.956;5.320;2023-07-31T05:48:34;17.90;99.90
29453;DHT22;16424;50.956;5.320;2023-07-31T05:51:00;17.90;99.90
29453;DHT22;16424;50.956;5.320;2023-07-31T05:53:26;17.80;99.90
29453;DHT22;16424;50.956;5.320;2023-07-31T05:55:51;17.90;99.90
29453;DHT22;16424;50.956;5.320;2023-07-31T05:58:17;17.70;99.90
29453;DHT22;16424;50.956;5.320;2023-07-31T06:00:43;17.70;99.90
29453;DHT22;16424;50.956;5.320;2023-07-31T06:03:08;17.60;99.90
29453;DHT22;16424;50.956;5.320;2023-07-31T06:05:34;17.60;99.90
29453;DHT22;16424;50.956;5.320;2023-07-31T06:08:00;17.60;99.90
29453;DHT22;16424;50.956;5.320;2023-07-31T06:10:26;17.50;99.90
29453;DHT22;16424;50.956;5.320;2023-07-31T06:12:52;17.40;99.90
29453;DHT22;16424;50.956;5.320;2023-07-31T06:15:17;17.40;99.90
29453;DHT22;16424;50.956;5.320;2023-07-31T06:17:44;17.40;99.90
29453;DHT22;16424;50.956;5.320;2023-07-31T06:20:10;17.30;99.90
29453;DHT22;16424;50.956;5.320;2023-07-31T06:22:36;17.30;99.90
29453;DHT22;16424;50.956;5.320;2023-07-31T06:25:02;17.20;99.90
29453;DHT22;16424;50.956;5.320;2023-07-31T06:27:28;17.30;99.90
29453;DHT22;16424;50.956;5.320;2023-07-31T06:29:53;17.30;99.90
29453;DHT22;16424;50.956;5.320;2023-07-31T06:32:19;17.40;99.90
29453;DHT22;16424;50.956;5.320;2023-07-31T06:34:44;17.20;99.90
29453;DHT22;16424;50.956;5.320;2023-07-31T06:37:10;17.20;99.90
29453;DHT22;16424;50.956;5.320;2023-07-31T06:39:36;17.30;99.90
29453;DHT22;16424;50.956;5.320;2023-07-31T06:42:03;17.30;99.90
29453;DHT22;16424;50.956;5.320;2023-07-31T06:44:28;17.20;99.90
29453;DHT22;16424;50.956;5.320;2023-07-31T06:46:54;17.30;99.90
29453;DHT22;16424;50.956;5.320;2023-07-31T06:49:19;17.40;99.90
29453;DHT22;16424;50.956;5.320;2023-07-31T06:51:45;17.40;99.90
29453;DHT22;16424;50.956;5.320;2023-07-31T06:54:11;17.50;99.90
29453;DHT22;16424;50.956;5.320;2023-07-31T06:56:36;17.60;99.90
29453;DHT22;16424;50.956;5.320;2023-07-31T06:59:03;17.60;99.90
29453;DHT22;16424;50.956;5.320;2023-07-31T07:01:28;17.70;99.90
29453;DHT22;16424;50.956;5.320;2023-07-31T07:03:54;17.60;99.90
29453;DHT22;16424;50.956;5.320;2023-07-31T07:06:20;17.60;99.90
29453;DHT22;16424;50.956;5.320;2023-07-31T07:08:45;17.60;99.90
29453;DHT22;16424;50.956;5.320;2023-07-31T07:11:11;17.60;99.90
29453;DHT22;16424;50.956;5.320;2023-07-31T07:13:36;17.60;99.90
29453;DHT22;16424;50.956;5.320;2023-07-31T07:16:02;17.70;99.90
29453;DHT22;16424;50.956;5.320;2023-07-31T07:18:28;17.70;99.90
29453;DHT22;16424;50.956;5.320;2023-07-31T07:20:54;17.60;99.90
29453;DHT22;16424;50.956;5.320;2023-07-31T07:23:20;17.50;99.90
29453;DHT22;16424;50.956;5.320;2023-07-31T07:25:47;17.60;99.90
29453;DHT22;16424;50.956;5.320;2023-07-31T07:28:13;17.70;99.90
29453;DHT22;16424;50.956;5.320;2023-07-31T07:30:39;17.50;99.90
29453;DHT22;16424;50.956;5.320;2023-07-31T07:33:05;17.60;99.90
29453;DHT22;16424;50.956;5.320;2023-07-31T07:35:33;17.70;99.90
29453;DHT22;16424;50.956;5.320;2023-07-31T07:38:00;17.80;99.90
29453;DHT22;16424;50.956;5.320;2023-07-31T07:40:26;17.80;99.90
29453;DHT22;16424;50.956;5.320;2023-07-31T07:42:51;17.70;99.90
29453;DHT22;16424;50.956;5.320;2023-07-31T07:45:17;17.70;99.90
29453;DHT22;16424;50.956;5.320;2023-07-31T07:47:43;17.70;99.90
29453;DHT22;16424;50.956;5.320;2023-07-31T07:50:09;17.70;99.90
29453;DHT22;16424;50.956;5.320;2023-07-31T07:52:35;17.80;99.90
29453;DHT22;16424;50.956;5.320;2023-07-31T07:55:00;17.80;99.90
29453;DHT22;16424;50.956;5.320;2023-07-31T07:57:27;17.80;99.90
29453;DHT22;16424;50.956;5.320;2023-07-31T07:59:52;17.80;99.90
29453;DHT22;16424;50.956;5.320;2023-07-31T08:02:18;18.00;99.90
29453;DHT22;16424;50.956;5.320;2023-07-31T08:04:44;18.10;99.90
29453;DHT22;16424;50.956;5.320;2023-07-31T08:07:12;18.10;99.90
29453;DHT22;16424;50.956;5.320;2023-07-31T08:09:38;18.10;99.90
29453;DHT22;16424;50.956;5.320;2023-07-31T08:12:05;17.90;99.90
29453;DHT22;16424;50.956;5.320;2023-07-31T08:14:31;17.90;99.90
29453;DHT22;16424;50.956;5.320;2023-07-31T08:16:56;18.00;99.90
29453;DHT22;16424;50.956;5.320;2023-07-31T08:19:22;18.00;99.90
29453;DHT22;16424;50.956;5.320;2023-07-31T08:21:48;18.00;99.90
29453;DHT22;16424;50.956;5.320;2023-07-31T08:24:13;18.10;99.90
29453;DHT22;16424;50.956;5.320;2023-07-31T08:26:39;17.90;99.90
29453;DHT22;16424;50.956;5.320;2023-07-31T08:29:05;17.80;99.90
29453;DHT22;16424;50.956;5.320;2023-07-31T08:31:30;17.80;99.90
29453;DHT22;16424;50.956;5.320;2023-07-31T08:33:56;17.90;99.90
29453;DHT22;16424;50.956;5.320;2023-07-31T08:36:22;18.00;99.90
29453;DHT22;16424;50.956;5.320;2023-07-31T08:38:48;18.00;99.90
29453;DHT22;16424;50.956;5.320;2023-07-31T08:41:13;18.00;99.90
29453;DHT22;16424;50.956;5.320;2023-07-31T08:43:39;18.10;99.90
29453;DHT22;16424;50.956;5.320;2023-07-31T08:46:06;18.10;99.90
29453;DHT22;16424;50.956;5.320;2023-07-31T08:48:32;18.30;99.90
29453;DHT22;16424;50.956;5.320;2023-07-31T08:51:01;18.40;99.90
29453;DHT22;16424;50.956;5.320;2023-07-31T08:53:26;18.40;99.90
29453;DHT22;16424;50.956;5.320;2023-07-31T08:55:53;18.40;99.90
29453;DHT22;16424;50.956;5.320;2023-07-31T08:58:19;18.30;99.90
29453;DHT22;16424;50.956;5.320;2023-07-31T09:00:49;18.20;99.90
29453;DHT22;16424;50.956;5.320;2023-07-31T09:03:17;18.20;99.90
29453;DHT22;16424;50.956;5.320;2023-07-31T09:05:45;18.20;99.90
29453;DHT22;16424;50.956;5.320;2023-07-31T09:08:13;18.30;99.90
29453;DHT22;16424;50.956;5.320;2023-07-31T09:10:43;18.30;99.90
29453;DHT22;16424;50.956;5.320;2023-07-31T09:13:11;18.40;99.90
29453;DHT22;16424;50.956;5.320;2023-07-31T09:15:37;18.50;99.90
29453;DHT22;16424;50.956;5.320;2023-07-31T09:18:04;18.80;99.90
29453;DHT22;16424;50.956;5.320;2023-07-31T09:20:31;18.70;99.90
29453;DHT22;16424;50.956;5.320;2023-07-31T09:23:14;18.70;99.90
29453;DHT22;16424;50.956;5.320;2023-07-31T09:25:43;18.50;99.90
29453;DHT22;16424;50.956;5.320;2023-07-31T09:28:12;18.60;99.90
29453;DHT22;16424;50.956;5.320;2023-07-31T09:30:51;18.50;99.90
29453;DHT22;16424;50.956;5.320;2023-07-31T09:33:18;18.40;99.90
29453;DHT22;16424;50.956;5.320;2023-07-31T09:35:44;18.40;99.90
29453;DHT22;16424;50.956;5.320;2023-07-31T09:38:14;18.40;99.90
29453;DHT22;16424;50.956;5.320;2023-07-31T09:40:48;18.20;99.90
29453;DHT22;16424;50.956;5.320;2023-07-31T09:43:21;18.20;99.90
29453;DHT22;16424;50.956;5.320;2023-07-31T09:45:47;18.40;99.90
29453;DHT22;16424;50.956;5.320;2023-07-31T09:48:17;18.40;99.90
29453;DHT22;16424;50.956;5.320;2023-07-31T09:50:48;18.50;99.90
29453;DHT22;16424;50.956;5.320;2023-07-31T09:53:17;18.40;99.90
29453;DHT22;16424;50.956;5.320;2023-07-31T10:02:13;18.90;99.90
29453;DHT22;16424;50.956;5.320;2023-07-31T10:04:47;18.70;99.90
29453;DHT22;16424;50.956;5.320;2023-07-31T10:07:23;18.60;99.90
29453;DHT22;16424;50.956;5.320;2023-07-31T10:09:54;18.70;99.90
29453;DHT22;16424;50.956;5.320;2023-07-31T10:12:27;18.60;99.90
29453;DHT22;16424;50.956;5.320;2023-07-31T10:15:02;18.80;99.90
29453;DHT22;16424;50.956;5.320;2023-07-31T10:17:38;18.80;99.90
29453;DHT22;16424;50.956;5.320;2023-07-31T10:20:12;18.90;99.90
29453;DHT22;16424;50.956;5.320;2023-07-31T10:22:54;19.10;99.90
29453;DHT22;16424;50.956;5.320;2023-07-31T10:25:30;19.20;99.90
29453;DHT22;16424;50.956;5.320;2023-07-31T10:27:59;19.20;99.90
29453;DHT22;16424;50.956;5.320;2023-07-31T10:30:33;19.20;99.90
29453;DHT22;16424;50.956;5.320;2023-07-31T10:33:03;19.10;99.90
29453;DHT22;16424;50.956;5.320;2023-07-31T10:35:36;19.20;99.90
29453;DHT22;16424;50.956;5.320;2023-07-31T10:38:13;19.20;99.90
29453;DHT22;16424;50.956;5.320;2023-07-31T10:40:47;19.20;99.90
29453;DHT22;16424;50.956;5.320;2023-07-31T10:43:27;19.20;99.90
29453;DHT22;16424;50.956;5.320;2023-07-31T10:46:00;19.30;99.90
29453;DHT22;16424;50.956;5.320;2023-07-31T10:49:02;19.50;99.90
29453;DHT22;16424;50.956;5.320;2023-07-31T10:51:36;19.80;99.90
29453;DHT22;16424;50.956;5.320;2023-07-31T10:54:18;20.00;99.90
29453;DHT22;16424;50.956;5.320;2023-07-31T10:56:50;19.70;99.90
29453;DHT22;16424;50.956;5.320;2023-07-31T10:59:16;19.60;99.90
29453;DHT22;16424;50.956;5.320;2023-07-31T11:01:57;19.80;99.90
29453;DHT22;16424;50.956;5.320;2023-07-31T11:04:28;20.00;99.90
29453;DHT22;16424;50.956;5.320;2023-07-31T11:06:58;19.80;99.90
29453;DHT22;16424;50.956;5.320;2023-07-31T11:09:33;19.80;99.90
29453;DHT22;16424;50.956;5.320;2023-07-31T11:11:59;19.70;99.90
29453;DHT22;16424;50.956;5.320;2023-07-31T11:14:26;19.80;99.90
29453;DHT22;16424;50.956;5.320;2023-07-31T11:16:52;19.90;99.90
29453;DHT22;16424;50.956;5.320;2023-07-31T11:19:27;19.80;99.90
29453;DHT22;16424;50.956;5.320;2023-07-31T11:21:53;19.80;99.90
29453;DHT22;16424;50.956;5.320;2023-07-31T11:24:19;19.90;99.90
29453;DHT22;16424;50.956;5.320;2023-07-31T11:26:50;20.30;99.90
29453;DHT22;16424;50.956;5.320;2023-07-31T11:29:20;20.30;99.90
29453;DHT22;16424;50.956;5.320;2023-07-31T11:31:47;20.20;99.90
29453;DHT22;16424;50.956;5.320;2023-07-31T11:34:13;20.20;99.90
29453;DHT22;16424;50.956;5.320;2023-07-31T11:36:39;20.40;99.90
29453;DHT22;16424;50.956;5.320;2023-07-31T11:39:07;20.60;99.90
29453;DHT22;16424;50.956;5.320;2023-07-31T11:41:33;20.70;99.90
29453;DHT22;16424;50.956;5.320;2023-07-31T11:44:00;20.70;99.90
29453;DHT22;16424;50.956;5.320;2023-07-31T11:46:30;20.60;99.90
29453;DHT22;16424;50.956;5.320;2023-07-31T11:48:59;20.60;99.90
29453;DHT22;16424;50.956;5.320;2023-07-31T11:51:26;20.90;99.90
29453;DHT22;16424;50.956;5.320;2023-07-31T11:53:57;21.20;99.90
29453;DHT22;16424;50.956;5.320;2023-07-31T11:56:24;21.30;99.90
29453;DHT22;16424;50.956;5.320;2023-07-31T11:58:54;21.40;99.90
29453;DHT22;16424;50.956;5.320;2023-07-31T12:01:21;21.70;99.90
29453;DHT22;16424;50.956;5.320;2023-07-31T12:03:49;21.70;99.90
29453;DHT22;16424;50.956;5.320;2023-07-31T12:06:16;21.80;99.90
29453;DHT22;16424;50.956;5.320;2023-07-31T12:08:41;21.70;99.90
29453;DHT22;16424;50.956;5.320;2023-07-31T12:11:09;21.70;99.90
29453;DHT22;16424;50.956;5.320;2023-07-31T12:13:39;21.60;99.90
29453;DHT22;16424;50.956;5.320;2023-07-31T12:16:05;21.40;99.90
29453;DHT22;16424;50.956;5.320;2023-07-31T12:18:36;21.30;99.90
29453;DHT22;16424;50.956;5.320;2023-07-31T12:21:05;21.10;99.90
29453;DHT22;16424;50.956;5.320;2023-07-31T12:23:32;21.10;99.90
29453;DHT22;16424;50.956;5.320;2023-07-31T12:28:48;20.80;99.90
29453;DHT22;16424;50.956;5.320;2023-07-31T12:31:16;20.80;99.90
29453;DHT22;16424;50.956;5.320;2023-07-31T12:33:50;21.00;99.90
29453;DHT22;16424;50.956;5.320;2023-07-31T12:36:24;21.10;99.90
29453;DHT22;16424;50.956;5.320;2023-07-31T12:38:51;21.20;99.90
29453;DHT22;16424;50.956;5.320;2023-07-31T12:41:17;21.50;99.90
29453;DHT22;16424;50.956;5.320;2023-07-31T12:43:44;22.00;99.90
29453;DHT22;16424;50.956;5.320;2023-07-31T12:46:10;22.00;99.90
29453;DHT22;16424;50.956;5.320;2023-07-31T12:48:37;22.30;99.90
29453;DHT22;16424;50.956;5.320;2023-07-31T12:51:03;22.30;99.90
29453;DHT22;16424;50.956;5.320;2023-07-31T12:53:30;22.10;99.90
29453;DHT22;16424;50.956;5.320;2023-07-31T12:55:56;22.00;99.90
29453;DHT22;16424;50.956;5.320;2023-07-31T12:58:22;21.90;99.90
29453;DHT22;16424;50.956;5.320;2023-07-31T13:00:48;21.80;99.90
29453;DHT22;16424;50.956;5.320;2023-07-31T13:03:14;21.60;99.90
29453;DHT22;16424;50.956;5.320;2023-07-31T13:05:39;21.30;99.90
29453;DHT22;16424;50.956;5.320;2023-07-31T13:08:05;21.00;99.90
29453;DHT22;16424;50.956;5.320;2023-07-31T13:10:31;21.10;99.90
29453;DHT22;16424;50.956;5.320;2023-07-31T13:12:57;21.10;99.90
29453;DHT22;16424;50.956;5.320;2023-07-31T13:15:23;20.90;99.90
29453;DHT22;16424;50.956;5.320;2023-07-31T13:17:49;21.00;99.90
29453;DHT22;16424;50.956;5.320;2023-07-31T13:20:14;21.00;99.90
29453;DHT22;16424;50.956;5.320;2023-07-31T13:22:40;21.00;99.90
29453;DHT22;16424;50.956;5.320;2023-07-31T13:25:06;21.00;99.90
29453;DHT22;16424;50.956;5.320;2023-07-31T13:27:32;20.80;99.90
29453;DHT22;16424;50.956;5.320;2023-07-31T13:29:58;20.80;99.90
29453;DHT22;16424;50.956;5.320;2023-07-31T13:32:24;20.70;99.90
29453;DHT22;16424;50.956;5.320;2023-07-31T13:34:50;20.70;99.90
29453;DHT22;16424;50.956;5.320;2023-07-31T13:37:16;20.60;99.90
29453;DHT22;16424;50.956;5.320;2023-07-31T13:39:43;20.60;99.90
29453;DHT22;16424;50.956;5.320;2023-07-31T13:42:09;20.70;99.90
29453;DHT22;16424;50.956;5.320;2023-07-31T13:44:41;20.70;99.90
29453;DHT22;16424;50.956;5.320;2023-07-31T13:47:08;20.70;99.90
29453;DHT22;16424;50.956;5.320;2023-07-31T13:49:34;20.60;99.90
29453;DHT22;16424;50.956;5.320;2023-07-31T13:52:01;20.70;99.90
29453;DHT22;16424;50.956;5.320;2023-07-31T13:54:27;20.80;99.90
29453;DHT22;16424;50.956;5.320;2023-07-31T13:56:53;20.60;99.90
29453;DHT22;16424;50.956;5.320;2023-07-31T13:59:20;20.60;99.90
29453;DHT22;16424;50.956;5.320;2023-07-31T14:01:46;20.60;99.90
29453;DHT22;16424;50.956;5.320;2023-07-31T14:04:13;20.80;99.90
29453;DHT22;16424;50.956;5.320;2023-07-31T14:06:39;20.90;99.90
29453;DHT22;16424;50.956;5.320;2023-07-31T14:09:05;20.90;99.90
29453;DHT22;16424;50.956;5.320;2023-07-31T14:11:32;20.90;99.90
29453;DHT22;16424;50.956;5.320;2023-07-31T14:13:58;20.60;99.90
29453;DHT22;16424;50.956;5.320;2023-07-31T14:16:27;20.60;99.90
29453;DHT22;16424;50.956;5.320;2023-07-31T14:18:54;20.40;99.90
29453;DHT22;16424;50.956;5.320;2023-07-31T14:21:20;20.40;99.90
29453;DHT22;16424;50.956;5.320;2023-07-31T14:23:46;20.40;99.90
29453;DHT22;16424;50.956;5.320;2023-07-31T14:26:12;20.30;99.90
29453;DHT22;16424;50.956;5.320;2023-07-31T14:28:38;20.30;99.90
29453;DHT22;16424;50.956;5.320;2023-07-31T14:31:07;20.10;99.90
29453;DHT22;16424;50.956;5.320;2023-07-31T14:33:38;20.10;99.90
29453;DHT22;16424;50.956;5.320;2023-07-31T14:36:08;19.70;99.90
29453;DHT22;16424;50.956;5.320;2023-07-31T14:38:44;19.70;99.90
29453;DHT22;16424;50.956;5.320;2023-07-31T14:41:19;19.60;99.90
29453;DHT22;16424;50.956;5.320;2023-07-31T14:43:56;19.40;99.90
29453;DHT22;16424;50.956;5.320;2023-07-31T14:46:31;19.30;99.90
29453;DHT22;16424;50.956;5.320;2023-07-31T14:48:57;19.30;99.90
29453;DHT22;16424;50.956;5.320;2023-07-31T14:51:29;19.40;99.90
29453;DHT22;16424;50.956;5.320;2023-07-31T14:53:55;19.40;99.90
29453;DHT22;16424;50.956;5.320;2023-07-31T14:56:21;19.40;99.90
29453;DHT22;16424;50.956;5.320;2023-07-31T14:58:47;19.60;99.90
29453;DHT22;16424;50.956;5.320;2023-07-31T15:01:13;19.70;99.90
29453;DHT22;16424;50.956;5.320;2023-07-31T15:03:38;19.80;99.90
29453;DHT22;16424;50.956;5.320;2023-07-31T15:06:04;19.60;99.90
29453;DHT22;16424;50.956;5.320;2023-07-31T15:08:33;19.60;99.90
29453;DHT22;16424;50.956;5.320;2023-07-31T15:11:04;19.70;99.90
29453;DHT22;16424;50.956;5.320;2023-07-31T15:13:30;19.60;99.90
29453;DHT22;16424;50.956;5.320;2023-07-31T15:15:59;19.60;99.90
29453;DHT22;16424;50.956;5.320;2023-07-31T15:18:30;19.40;99.90
29453;DHT22;16424;50.956;5.320;2023-07-31T15:20:59;19.40;99.90
29453;DHT22;16424;50.956;5.320;2023-07-31T15:23:28;19.40;99.90
29453;DHT22;16424;50.956;5.320;2023-07-31T15:26:00;19.30;99.90
29453;DHT22;16424;50.956;5.320;2023-07-31T15:28:30;19.20;99.90
29453;DHT22;16424;50.956;5.320;2023-07-31T15:31:04;19.00;99.90
29453;DHT22;16424;50.956;5.320;2023-07-31T15:33:30;19.10;99.90
29453;DHT22;16424;50.956;5.320;2023-07-31T15:35:59;19.10;99.90
29453;DHT22;16424;50.956;5.320;2023-07-31T15:38:28;19.10;99.90
29453;DHT22;16424;50.956;5.320;2023-07-31T15:41:00;18.90;99.90
29453;DHT22;16424;50.956;5.320;2023-07-31T15:43:42;19.00;99.90
29453;DHT22;16424;50.956;5.320;2023-07-31T15:46:20;18.80;99.90
29453;DHT22;16424;50.956;5.320;2023-07-31T15:48:58;18.90;99.90
29453;DHT22;16424;50.956;5.320;2023-07-31T15:51:27;19.10;99.90
29453;DHT22;16424;50.956;5.320;2023-07-31T15:53:53;19.10;99.90